sensor_id;sensor_type;location;lat;lon;timestamp;P1;durP1;ratioP1;P2;durP2;ratioP2
54743;SDS011;40639;53.170;6.728;2022-11-20T00:00:46;12.98;;;8.88;;
54743;SDS011;40639;53.170;6.728;2022-11-20T00:03:12;15.60;;;8.95;;
54743;SDS011;40639;53.170;6.728;2022-11-20T00:05:38;14.70;;;9.05;;
54743;SDS011;40639;53.170;6.728;2022-11-20T00:08:05;14.27;;;9.07;;
54743;SDS011;40639;53.170;6.728;2022-11-20T00:10:31;15.15;;;9.18;;
54743;SDS011;40639;53.170;6.728;2022-11-20T00:12:58;15.57;;;8.75;;
54743;SDS011;40639;53.170;6.728;2022-11-20T00:15:24;13.77;;;8.57;;
54743;SDS011;40639;53.170;6.728;2022-11-20T00:17:50;16.23;;;9.45;;
54743;SDS011;40639;53.170;6.728;2022-11-20T00:20:16;16.40;;;9.13;;
54743;SDS011;40639;53.170;6.728;2022-11-20T00:22:42;13.63;;;8.75;;
54743;SDS011;40639;53.170;6.728;2022-11-20T00:25:08;12.50;;;7.72;;
54743;SDS011;40639;53.170;6.728;2022-11-20T00:27:35;16.98;;;8.35;;
54743;SDS011;40639;53.170;6.728;2022-11-20T00:30:01;16.05;;;8.80;;
54743;SDS011;40639;53.170;6.728;2022-11-20T00:32:27;14.23;;;8.00;;
54743;SDS011;40639;53.170;6.728;2022-11-20T00:34:53;15.25;;;8.30;;
54743;SDS011;40639;53.170;6.728;2022-11-20T00:37:19;15.70;;;9.00;;
54743;SDS011;40639;53.170;6.728;2022-11-20T00:39:45;14.45;;;9.13;;
54743;SDS011;40639;53.170;6.728;2022-11-20T00:42:11;13.30;;;8.48;;
54743;SDS011;40639;53.170;6.728;2022-11-20T00:44:37;13.98;;;8.63;;
54743;SDS011;40639;53.170;6.728;2022-11-20T00:47:04;13.70;;;8.02;;
54743;SDS011;40639;53.170;6.728;2022-11-20T00:49:30;13.65;;;7.70;;
54743;SDS011;40639;53.170;6.728;2022-11-20T00:51:56;12.70;;;7.32;;
54743;SDS011;40639;53.170;6.728;2022-11-20T00:54:22;14.30;;;8.45;;
54743;SDS011;40639;53.170;6.728;2022-11-20T00:56:48;12.90;;;7.70;;
54743;SDS011;40639;53.170;6.728;2022-11-20T00:59:14;15.05;;;7.78;;
54743;SDS011;40639;53.170;6.728;2022-11-20T01:01:40;13.18;;;7.63;;
54743;SDS011;40639;53.170;6.728;2022-11-20T01:04:06;13.30;;;7.65;;
54743;SDS011;40639;53.170;6.728;2022-11-20T01:06:34;11.82;;;6.90;;
54743;SDS011;40639;53.170;6.728;2022-11-20T01:09:10;12.38;;;7.35;;
54743;SDS011;40639;53.170;6.728;2022-11-20T01:11:37;12.73;;;7.78;;
54743;SDS011;40639;53.170;6.728;2022-11-20T01:14:04;12.88;;;8.73;;
54743;SDS011;40639;53.170;6.728;2022-11-20T01:16:34;13.05;;;7.55;;
54743;SDS011;40639;53.170;6.728;2022-11-20T01:19:02;14.10;;;8.13;;
54743;SDS011;40639;53.170;6.728;2022-11-20T01:21:29;13.35;;;7.88;;
54743;SDS011;40639;53.170;6.728;2022-11-20T01:23:56;13.85;;;8.02;;
54743;SDS011;40639;53.170;6.728;2022-11-20T01:26:26;16.35;;;7.90;;
54743;SDS011;40639;53.170;6.728;2022-11-20T01:28:53;13.77;;;7.40;;
54743;SDS011;40639;53.170;6.728;2022-11-20T01:31:23;13.75;;;7.95;;
54743;SDS011;40639;53.170;6.728;2022-11-20T01:33:50;13.25;;;7.20;;
54743;SDS011;40639;53.170;6.728;2022-11-20T01:36:17;12.43;;;7.55;;
54743;SDS011;40639;53.170;6.728;2022-11-20T01:38:44;12.43;;;7.45;;
54743;SDS011;40639;53.170;6.728;2022-11-20T01:41:11;12.68;;;7.72;;
54743;SDS011;40639;53.170;6.728;2022-11-20T01:43:58;13.88;;;7.75;;
54743;SDS011;40639;53.170;6.728;2022-11-20T01:46:24;13.23;;;7.70;;
54743;SDS011;40639;53.170;6.728;2022-11-20T01:49:10;13.85;;;7.55;;
54743;SDS011;40639;53.170;6.728;2022-11-20T01:54:07;12.27;;;7.50;;
54743;SDS011;40639;53.170;6.728;2022-11-20T01:56:40;13.23;;;7.40;;
54743;SDS011;40639;53.170;6.728;2022-11-20T01:59:07;10.93;;;7.05;;
54743;SDS011;40639;53.170;6.728;2022-11-20T02:01:34;11.93;;;6.40;;
54743;SDS011;40639;53.170;6.728;2022-11-20T02:04:00;14.50;;;7.55;;
54743;SDS011;40639;53.170;6.728;2022-11-20T02:06:47;14.57;;;7.78;;
54743;SDS011;40639;53.170;6.728;2022-11-20T02:09:15;11.38;;;7.30;;
54743;SDS011;40639;53.170;6.728;2022-11-20T02:11:41;16.17;;;7.78;;
54743;SDS011;40639;53.170;6.728;2022-11-20T02:14:07;12.90;;;6.82;;
54743;SDS011;40639;53.170;6.728;2022-11-20T02:16:35;13.10;;;7.50;;
54743;SDS011;40639;53.170;6.728;2022-11-20T02:19:02;10.80;;;7.57;;
54743;SDS011;40639;53.170;6.728;2022-11-20T02:21:40;11.48;;;6.55;;
54743;SDS011;40639;53.170;6.728;2022-11-20T02:26:37;12.98;;;6.95;;
54743;SDS011;40639;53.170;6.728;2022-11-20T02:29:04;11.30;;;7.35;;
54743;SDS011;40639;53.170;6.728;2022-11-20T02:31:35;13.07;;;7.38;;
54743;SDS011;40639;53.170;6.728;2022-11-20T02:34:01;11.15;;;6.90;;
54743;SDS011;40639;53.170;6.728;2022-11-20T02:36:27;12.55;;;7.07;;
54743;SDS011;40639;53.170;6.728;2022-11-20T02:38:54;12.18;;;7.03;;
54743;SDS011;40639;53.170;6.728;2022-11-20T02:41:20;11.65;;;6.95;;
54743;SDS011;40639;53.170;6.728;2022-11-20T02:43:47;15.88;;;7.32;;
54743;SDS011;40639;53.170;6.728;2022-11-20T02:46:13;11.15;;;6.95;;
54743;SDS011;40639;53.170;6.728;2022-11-20T02:48:39;12.38;;;7.25;;
54743;SDS011;40639;53.170;6.728;2022-11-20T02:51:05;12.35;;;7.53;;
54743;SDS011;40639;53.170;6.728;2022-11-20T02:53:31;12.60;;;7.05;;
54743;SDS011;40639;53.170;6.728;2022-11-20T02:55:57;13.63;;;7.35;;
54743;SDS011;40639;53.170;6.728;2022-11-20T02:58:23;12.77;;;7.05;;
54743;SDS011;40639;53.170;6.728;2022-11-20T03:00:50;11.93;;;7.07;;
54743;SDS011;40639;53.170;6.728;2022-11-20T03:03:16;13.85;;;7.63;;
54743;SDS011;40639;53.170;6.728;2022-11-20T03:05:42;12.30;;;6.78;;
54743;SDS011;40639;53.170;6.728;2022-11-20T03:08:08;13.27;;;7.05;;
54743;SDS011;40639;53.170;6.728;2022-11-20T03:10:34;11.05;;;6.90;;
54743;SDS011;40639;53.170;6.728;2022-11-20T03:13:00;14.70;;;7.10;;
54743;SDS011;40639;53.170;6.728;2022-11-20T03:15:26;10.18;;;6.47;;
54743;SDS011;40639;53.170;6.728;2022-11-20T03:17:53;11.35;;;7.25;;
54743;SDS011;40639;53.170;6.728;2022-11-20T03:20:20;13.30;;;7.53;;
54743;SDS011;40639;53.170;6.728;2022-11-20T03:22:46;11.27;;;7.30;;
54743;SDS011;40639;53.170;6.728;2022-11-20T03:25:12;12.65;;;6.82;;
54743;SDS011;40639;53.170;6.728;2022-11-20T03:27:38;10.93;;;6.68;;
54743;SDS011;40639;53.170;6.728;2022-11-20T03:30:05;14.55;;;7.40;;
54743;SDS011;40639;53.170;6.728;2022-11-20T03:32:31;13.07;;;7.68;;
54743;SDS011;40639;53.170;6.728;2022-11-20T03:34:57;13.93;;;7.30;;
54743;SDS011;40639;53.170;6.728;2022-11-20T03:37:23;12.57;;;6.70;;
54743;SDS011;40639;53.170;6.728;2022-11-20T03:39:49;12.15;;;6.97;;
54743;SDS011;40639;53.170;6.728;2022-11-20T03:42:15;15.05;;;7.55;;
54743;SDS011;40639;53.170;6.728;2022-11-20T03:45:00;12.52;;;7.38;;
54743;SDS011;40639;53.170;6.728;2022-11-20T03:47:26;12.45;;;7.07;;
54743;SDS011;40639;53.170;6.728;2022-11-20T03:49:53;12.02;;;6.90;;
54743;SDS011;40639;53.170;6.728;2022-11-20T03:52:19;11.90;;;6.75;;
54743;SDS011;40639;53.170;6.728;2022-11-20T03:54:45;11.73;;;7.32;;
54743;SDS011;40639;53.170;6.728;2022-11-20T03:57:11;13.05;;;7.25;;
54743;SDS011;40639;53.170;6.728;2022-11-20T03:59:38;13.55;;;7.57;;
54743;SDS011;40639;53.170;6.728;2022-11-20T04:02:04;11.68;;;6.80;;
54743;SDS011;40639;53.170;6.728;2022-11-20T04:04:30;11.68;;;6.80;;
54743;SDS011;40639;53.170;6.728;2022-11-20T04:06:56;11.98;;;7.40;;
54743;SDS011;40639;53.170;6.728;2022-11-20T04:09:22;10.38;;;6.43;;
54743;SDS011;40639;53.170;6.728;2022-11-20T04:11:48;11.90;;;6.70;;
54743;SDS011;40639;53.170;6.728;2022-11-20T04:14:15;14.20;;;7.30;;
54743;SDS011;40639;53.170;6.728;2022-11-20T04:16:41;11.93;;;7.10;;
54743;SDS011;40639;53.170;6.728;2022-11-20T04:19:14;11.38;;;6.47;;
54743;SDS011;40639;53.170;6.728;2022-11-20T04:21:41;11.88;;;6.80;;
54743;SDS011;40639;53.170;6.728;2022-11-20T04:24:08;13.23;;;6.85;;
54743;SDS011;40639;53.170;6.728;2022-11-20T04:26:35;11.48;;;6.53;;
54743;SDS011;40639;53.170;6.728;2022-11-20T04:29:02;14.70;;;7.28;;
54743;SDS011;40639;53.170;6.728;2022-11-20T04:31:29;11.98;;;6.63;;
54743;SDS011;40639;53.170;6.728;2022-11-20T04:33:59;15.65;;;6.85;;
54743;SDS011;40639;53.170;6.728;2022-11-20T04:36:26;10.73;;;6.03;;
54743;SDS011;40639;53.170;6.728;2022-11-20T04:38:52;10.75;;;5.72;;
54743;SDS011;40639;53.170;6.728;2022-11-20T04:41:19;10.77;;;6.28;;
54743;SDS011;40639;53.170;6.728;2022-11-20T04:43:46;10.60;;;6.32;;
54743;SDS011;40639;53.170;6.728;2022-11-20T04:46:16;11.85;;;6.72;;
54743;SDS011;40639;53.170;6.728;2022-11-20T04:48:42;9.55;;;5.95;;
54743;SDS011;40639;53.170;6.728;2022-11-20T04:51:08;12.70;;;6.80;;
54743;SDS011;40639;53.170;6.728;2022-11-20T04:53:35;11.25;;;6.57;;
54743;SDS011;40639;53.170;6.728;2022-11-20T04:56:05;11.52;;;6.32;;
54743;SDS011;40639;53.170;6.728;2022-11-20T04:58:32;12.18;;;6.70;;
54743;SDS011;40639;53.170;6.728;2022-11-20T05:03:37;11.35;;;6.75;;
54743;SDS011;40639;53.170;6.728;2022-11-20T05:06:04;12.48;;;7.13;;
54743;SDS011;40639;53.170;6.728;2022-11-20T05:08:30;12.80;;;6.80;;
54743;SDS011;40639;53.170;6.728;2022-11-20T05:11:03;11.23;;;6.70;;
54743;SDS011;40639;53.170;6.728;2022-11-20T05:13:30;13.05;;;7.07;;
54743;SDS011;40639;53.170;6.728;2022-11-20T05:16:00;14.05;;;7.07;;
54743;SDS011;40639;53.170;6.728;2022-11-20T05:18:26;11.60;;;6.57;;
54743;SDS011;40639;53.170;6.728;2022-11-20T05:20:59;10.27;;;5.97;;
54743;SDS011;40639;53.170;6.728;2022-11-20T05:23:25;12.45;;;6.28;;
54743;SDS011;40639;53.170;6.728;2022-11-20T05:25:52;10.23;;;6.10;;
54743;SDS011;40639;53.170;6.728;2022-11-20T05:28:18;8.65;;;5.60;;
54743;SDS011;40639;53.170;6.728;2022-11-20T05:30:44;10.18;;;5.85;;
54743;SDS011;40639;53.170;6.728;2022-11-20T05:33:10;10.35;;;5.93;;
54743;SDS011;40639;53.170;6.728;2022-11-20T05:35:36;10.13;;;5.70;;
54743;SDS011;40639;53.170;6.728;2022-11-20T05:38:03;10.15;;;5.93;;
54743;SDS011;40639;53.170;6.728;2022-11-20T05:40:29;12.23;;;6.53;;
54743;SDS011;40639;53.170;6.728;2022-11-20T05:42:55;11.63;;;6.25;;
54743;SDS011;40639;53.170;6.728;2022-11-20T05:45:21;10.80;;;5.72;;
54743;SDS011;40639;53.170;6.728;2022-11-20T05:47:47;11.68;;;6.22;;
54743;SDS011;40639;53.170;6.728;2022-11-20T05:50:14;11.07;;;6.05;;
54743;SDS011;40639;53.170;6.728;2022-11-20T05:52:40;9.65;;;5.68;;
54743;SDS011;40639;53.170;6.728;2022-11-20T05:55:06;10.43;;;5.60;;
54743;SDS011;40639;53.170;6.728;2022-11-20T05:57:33;12.65;;;5.63;;
54743;SDS011;40639;53.170;6.728;2022-11-20T05:59:59;9.88;;;5.72;;
54743;SDS011;40639;53.170;6.728;2022-11-20T06:02:25;11.05;;;6.05;;
54743;SDS011;40639;53.170;6.728;2022-11-20T06:04:51;9.93;;;5.90;;
54743;SDS011;40639;53.170;6.728;2022-11-20T06:07:17;9.68;;;5.65;;
54743;SDS011;40639;53.170;6.728;2022-11-20T06:09:43;9.43;;;5.57;;
54743;SDS011;40639;53.170;6.728;2022-11-20T06:12:09;11.55;;;6.05;;
54743;SDS011;40639;53.170;6.728;2022-11-20T06:14:36;10.93;;;5.70;;
54743;SDS011;40639;53.170;6.728;2022-11-20T06:17:02;9.40;;;5.30;;
54743;SDS011;40639;53.170;6.728;2022-11-20T06:19:28;8.55;;;5.10;;
54743;SDS011;40639;53.170;6.728;2022-11-20T06:21:54;9.95;;;5.22;;
54743;SDS011;40639;53.170;6.728;2022-11-20T06:24:20;11.35;;;5.72;;
54743;SDS011;40639;53.170;6.728;2022-11-20T06:26:46;9.75;;;5.45;;
54743;SDS011;40639;53.170;6.728;2022-11-20T06:29:15;9.63;;;5.40;;
54743;SDS011;40639;53.170;6.728;2022-11-20T06:31:41;9.82;;;6.10;;
54743;SDS011;40639;53.170;6.728;2022-11-20T06:34:07;10.93;;;5.82;;
54743;SDS011;40639;53.170;6.728;2022-11-20T06:36:34;9.88;;;5.55;;
54743;SDS011;40639;53.170;6.728;2022-11-20T06:39:00;9.38;;;5.93;;
54743;SDS011;40639;53.170;6.728;2022-11-20T06:41:26;9.82;;;5.65;;
54743;SDS011;40639;53.170;6.728;2022-11-20T06:43:53;10.07;;;5.75;;
54743;SDS011;40639;53.170;6.728;2022-11-20T06:46:19;10.65;;;5.43;;
54743;SDS011;40639;53.170;6.728;2022-11-20T06:48:46;9.18;;;5.30;;
54743;SDS011;40639;53.170;6.728;2022-11-20T06:51:12;8.98;;;5.35;;
54743;SDS011;40639;53.170;6.728;2022-11-20T06:53:39;9.15;;;5.30;;
54743;SDS011;40639;53.170;6.728;2022-11-20T06:56:05;10.32;;;5.53;;
54743;SDS011;40639;53.170;6.728;2022-11-20T06:58:33;9.70;;;5.60;;
54743;SDS011;40639;53.170;6.728;2022-11-20T07:01:00;9.45;;;5.47;;
54743;SDS011;40639;53.170;6.728;2022-11-20T07:03:26;10.27;;;5.90;;
54743;SDS011;40639;53.170;6.728;2022-11-20T07:05:56;9.98;;;5.95;;
54743;SDS011;40639;53.170;6.728;2022-11-20T07:08:22;8.20;;;5.13;;
54743;SDS011;40639;53.170;6.728;2022-11-20T07:10:48;8.60;;;4.88;;
54743;SDS011;40639;53.170;6.728;2022-11-20T07:13:14;9.30;;;5.40;;
54743;SDS011;40639;53.170;6.728;2022-11-20T07:15:41;9.18;;;5.13;;
54743;SDS011;40639;53.170;6.728;2022-11-20T07:18:07;9.73;;;5.53;;
54743;SDS011;40639;53.170;6.728;2022-11-20T07:20:33;10.82;;;5.47;;
54743;SDS011;40639;53.170;6.728;2022-11-20T07:22:59;8.40;;;5.05;;
54743;SDS011;40639;53.170;6.728;2022-11-20T07:25:26;11.05;;;5.40;;
54743;SDS011;40639;53.170;6.728;2022-11-20T07:27:52;11.95;;;5.50;;
54743;SDS011;40639;53.170;6.728;2022-11-20T07:30:18;9.25;;;4.95;;
54743;SDS011;40639;53.170;6.728;2022-11-20T07:32:50;11.27;;;5.43;;
54743;SDS011;40639;53.170;6.728;2022-11-20T07:35:16;9.07;;;5.10;;
54743;SDS011;40639;53.170;6.728;2022-11-20T07:37:42;12.98;;;5.85;;
54743;SDS011;40639;53.170;6.728;2022-11-20T07:40:10;12.02;;;5.65;;
54743;SDS011;40639;53.170;6.728;2022-11-20T07:42:39;10.27;;;5.45;;
54743;SDS011;40639;53.170;6.728;2022-11-20T07:45:05;10.55;;;5.55;;
54743;SDS011;40639;53.170;6.728;2022-11-20T07:47:35;11.05;;;6.13;;
54743;SDS011;40639;53.170;6.728;2022-11-20T07:50:01;9.57;;;5.50;;
54743;SDS011;40639;53.170;6.728;2022-11-20T07:52:28;9.48;;;5.43;;
54743;SDS011;40639;53.170;6.728;2022-11-20T07:54:54;9.68;;;5.85;;
54743;SDS011;40639;53.170;6.728;2022-11-20T07:57:20;9.35;;;5.32;;
54743;SDS011;40639;53.170;6.728;2022-11-20T07:59:46;9.10;;;5.35;;
54743;SDS011;40639;53.170;6.728;2022-11-20T08:02:13;9.95;;;5.18;;
54743;SDS011;40639;53.170;6.728;2022-11-20T08:04:39;9.55;;;5.15;;
54743;SDS011;40639;53.170;6.728;2022-11-20T08:07:05;10.45;;;5.63;;
54743;SDS011;40639;53.170;6.728;2022-11-20T08:09:31;10.60;;;5.13;;
54743;SDS011;40639;53.170;6.728;2022-11-20T08:11:57;9.43;;;5.70;;
54743;SDS011;40639;53.170;6.728;2022-11-20T08:14:42;9.65;;;5.20;;
54743;SDS011;40639;53.170;6.728;2022-11-20T08:17:08;11.15;;;5.97;;
54743;SDS011;40639;53.170;6.728;2022-11-20T08:19:35;10.25;;;5.60;;
54743;SDS011;40639;53.170;6.728;2022-11-20T08:22:01;10.00;;;5.25;;
54743;SDS011;40639;53.170;6.728;2022-11-20T08:24:27;9.18;;;5.00;;
54743;SDS011;40639;53.170;6.728;2022-11-20T08:26:53;9.45;;;5.35;;
54743;SDS011;40639;53.170;6.728;2022-11-20T08:29:20;9.70;;;5.35;;
54743;SDS011;40639;53.170;6.728;2022-11-20T08:31:46;10.35;;;5.53;;
54743;SDS011;40639;53.170;6.728;2022-11-20T08:34:13;7.07;;;4.90;;
54743;SDS011;40639;53.170;6.728;2022-11-20T08:36:39;10.10;;;5.78;;
54743;SDS011;40639;53.170;6.728;2022-11-20T08:39:05;10.13;;;5.65;;
54743;SDS011;40639;53.170;6.728;2022-11-20T08:41:31;9.65;;;5.50;;
54743;SDS011;40639;53.170;6.728;2022-11-20T08:44:02;9.32;;;5.25;;
54743;SDS011;40639;53.170;6.728;2022-11-20T08:46:38;10.15;;;5.90;;
54743;SDS011;40639;53.170;6.728;2022-11-20T08:49:06;10.15;;;5.60;;
54743;SDS011;40639;53.170;6.728;2022-11-20T08:51:33;9.65;;;5.45;;
54743;SDS011;40639;53.170;6.728;2022-11-20T08:53:59;10.27;;;5.85;;
54743;SDS011;40639;53.170;6.728;2022-11-20T08:56:25;10.00;;;5.55;;
54743;SDS011;40639;53.170;6.728;2022-11-20T08:58:52;10.32;;;5.68;;
54743;SDS011;40639;53.170;6.728;2022-11-20T09:01:19;9.07;;;5.40;;
54743;SDS011;40639;53.170;6.728;2022-11-20T09:03:45;9.57;;;5.50;;
54743;SDS011;40639;53.170;6.728;2022-11-20T09:06:11;9.35;;;5.25;;
54743;SDS011;40639;53.170;6.728;2022-11-20T09:08:38;10.98;;;5.32;;
54743;SDS011;40639;53.170;6.728;2022-11-20T09:11:04;12.45;;;5.70;;
54743;SDS011;40639;53.170;6.728;2022-11-20T09:13:31;10.32;;;5.28;;
54743;SDS011;40639;53.170;6.728;2022-11-20T09:15:58;9.23;;;5.88;;
54743;SDS011;40639;53.170;6.728;2022-11-20T09:18:25;8.75;;;5.65;;
54743;SDS011;40639;53.170;6.728;2022-11-20T09:20:51;9.82;;;5.38;;
54743;SDS011;40639;53.170;6.728;2022-11-20T09:23:21;9.90;;;6.00;;
54743;SDS011;40639;53.170;6.728;2022-11-20T09:25:47;9.40;;;5.75;;
54743;SDS011;40639;53.170;6.728;2022-11-20T09:28:13;10.93;;;5.45;;
54743;SDS011;40639;53.170;6.728;2022-11-20T09:30:40;9.52;;;5.30;;
54743;SDS011;40639;53.170;6.728;2022-11-20T09:33:06;14.00;;;6.55;;
54743;SDS011;40639;53.170;6.728;2022-11-20T09:35:33;7.82;;;5.03;;
54743;SDS011;40639;53.170;6.728;2022-11-20T09:38:03;8.75;;;5.07;;
54743;SDS011;40639;53.170;6.728;2022-11-20T09:40:30;8.40;;;4.80;;
54743;SDS011;40639;53.170;6.728;2022-11-20T09:42:57;8.68;;;4.78;;
54743;SDS011;40639;53.170;6.728;2022-11-20T09:48:07;9.57;;;5.32;;
54743;SDS011;40639;53.170;6.728;2022-11-20T09:50:43;9.38;;;5.10;;
54743;SDS011;40639;53.170;6.728;2022-11-20T09:55:41;7.90;;;4.50;;
54743;SDS011;40639;53.170;6.728;2022-11-20T09:58:12;8.52;;;4.70;;
54743;SDS011;40639;53.170;6.728;2022-11-20T10:00:39;9.10;;;4.95;;
54743;SDS011;40639;53.170;6.728;2022-11-20T10:03:10;7.53;;;4.68;;
54743;SDS011;40639;53.170;6.728;2022-11-20T10:05:42;7.95;;;4.50;;
54743;SDS011;40639;53.170;6.728;2022-11-20T10:11:04;9.10;;;4.80;;
54743;SDS011;40639;53.170;6.728;2022-11-20T10:19:01;9.18;;;4.70;;
54743;SDS011;40639;53.170;6.728;2022-11-20T10:21:32;8.40;;;4.68;;
54743;SDS011;40639;53.170;6.728;2022-11-20T10:24:11;9.40;;;5.32;;
54743;SDS011;40639;53.170;6.728;2022-11-20T10:29:13;7.28;;;4.10;;
54743;SDS011;40639;53.170;6.728;2022-11-20T10:31:41;10.52;;;5.38;;
54743;SDS011;40639;53.170;6.728;2022-11-20T10:34:12;8.10;;;4.53;;
54743;SDS011;40639;53.170;6.728;2022-11-20T10:39:31;8.82;;;5.00;;
54743;SDS011;40639;53.170;6.728;2022-11-20T10:41:59;9.07;;;4.68;;
54743;SDS011;40639;53.170;6.728;2022-11-20T10:44:28;7.50;;;4.15;;
54743;SDS011;40639;53.170;6.728;2022-11-20T10:47:17;8.82;;;4.57;;
54743;SDS011;40639;53.170;6.728;2022-11-20T10:49:45;8.23;;;4.47;;
54743;SDS011;40639;53.170;6.728;2022-11-20T11:00:10;8.07;;;4.10;;
54743;SDS011;40639;53.170;6.728;2022-11-20T11:02:42;8.60;;;5.10;;
54743;SDS011;40639;53.170;6.728;2022-11-20T11:07:41;8.65;;;4.50;;
54743;SDS011;40639;53.170;6.728;2022-11-20T11:10:18;7.88;;;4.40;;
54743;SDS011;40639;53.170;6.728;2022-11-20T11:12:47;7.13;;;4.38;;
54743;SDS011;40639;53.170;6.728;2022-11-20T11:15:14;10.18;;;4.90;;
54743;SDS011;40639;53.170;6.728;2022-11-20T11:17:46;8.13;;;4.82;;
54743;SDS011;40639;53.170;6.728;2022-11-20T11:20:31;8.60;;;4.63;;
54743;SDS011;40639;53.170;6.728;2022-11-20T11:22:58;8.85;;;5.22;;
54743;SDS011;40639;53.170;6.728;2022-11-20T11:25:25;9.13;;;5.38;;
54743;SDS011;40639;53.170;6.728;2022-11-20T11:27:53;8.57;;;4.70;;
54743;SDS011;40639;53.170;6.728;2022-11-20T11:30:21;9.05;;;4.80;;
54743;SDS011;40639;53.170;6.728;2022-11-20T11:32:48;8.52;;;4.75;;
54743;SDS011;40639;53.170;6.728;2022-11-20T11:35:25;8.35;;;4.93;;
54743;SDS011;40639;53.170;6.728;2022-11-20T11:37:52;10.88;;;5.13;;
54743;SDS011;40639;53.170;6.728;2022-11-20T11:40:19;7.03;;;4.47;;
54743;SDS011;40639;53.170;6.728;2022-11-20T11:42:51;8.38;;;5.28;;
54743;SDS011;40639;53.170;6.728;2022-11-20T11:45:18;7.80;;;4.40;;
54743;SDS011;40639;53.170;6.728;2022-11-20T11:47:46;8.82;;;4.75;;
54743;SDS011;40639;53.170;6.728;2022-11-20T11:52:51;7.20;;;4.20;;
54743;SDS011;40639;53.170;6.728;2022-11-20T11:55:42;7.22;;;4.20;;
54743;SDS011;40639;53.170;6.728;2022-11-20T12:00:39;7.70;;;4.93;;
54743;SDS011;40639;53.170;6.728;2022-11-20T12:03:13;7.60;;;4.53;;
54743;SDS011;40639;53.170;6.728;2022-11-20T12:05:42;8.82;;;4.50;;
54743;SDS011;40639;53.170;6.728;2022-11-20T12:13:21;8.20;;;4.22;;
54743;SDS011;40639;53.170;6.728;2022-11-20T12:15:51;7.35;;;4.40;;
54743;SDS011;40639;53.170;6.728;2022-11-20T12:18:20;9.93;;;3.85;;
54743;SDS011;40639;53.170;6.728;2022-11-20T12:20:56;7.22;;;4.38;;
54743;SDS011;40639;53.170;6.728;2022-11-20T12:23:35;6.75;;;3.92;;
54743;SDS011;40639;53.170;6.728;2022-11-20T12:26:07;19.85;;;4.70;;
54743;SDS011;40639;53.170;6.728;2022-11-20T12:28:52;7.38;;;4.03;;
54743;SDS011;40639;53.170;6.728;2022-11-20T12:34:07;5.97;;;3.58;;
54743;SDS011;40639;53.170;6.728;2022-11-20T12:37:44;8.75;;;4.45;;
54743;SDS011;40639;53.170;6.728;2022-11-20T12:45:28;6.18;;;3.70;;
54743;SDS011;40639;53.170;6.728;2022-11-20T12:47:52;11.40;;;3.47;;
54743;SDS011;40639;53.170;6.728;2022-11-20T12:53:40;5.15;;;3.00;;
54743;SDS011;40639;53.170;6.728;2022-11-20T12:55:50;4.75;;;2.90;;
54743;SDS011;40639;53.170;6.728;2022-11-20T13:01:03;5.43;;;3.00;;
54743;SDS011;40639;53.170;6.728;2022-11-20T13:08:39;5.32;;;3.05;;
54743;SDS011;40639;53.170;6.728;2022-11-20T13:11:11;6.15;;;3.53;;
54743;SDS011;40639;53.170;6.728;2022-11-20T13:16:10;5.85;;;3.35;;
54743;SDS011;40639;53.170;6.728;2022-11-20T13:18:40;7.18;;;3.42;;
54743;SDS011;40639;53.170;6.728;2022-11-20T13:21:42;7.45;;;3.50;;
54743;SDS011;40639;53.170;6.728;2022-11-20T13:24:33;5.22;;;3.10;;
54743;SDS011;40639;53.170;6.728;2022-11-20T13:29:31;4.88;;;2.80;;
54743;SDS011;40639;53.170;6.728;2022-11-20T13:32:12;6.07;;;3.25;;
54743;SDS011;40639;53.170;6.728;2022-11-20T13:34:39;6.53;;;3.40;;
54743;SDS011;40639;53.170;6.728;2022-11-20T13:37:35;7.25;;;3.40;;
54743;SDS011;40639;53.170;6.728;2022-11-20T13:42:44;6.22;;;3.40;;
54743;SDS011;40639;53.170;6.728;2022-11-20T13:45:30;5.32;;;3.40;;
54743;SDS011;40639;53.170;6.728;2022-11-20T13:47:57;7.63;;;3.30;;
54743;SDS011;40639;53.170;6.728;2022-11-20T13:51:07;6.97;;;3.75;;
54743;SDS011;40639;53.170;6.728;2022-11-20T14:01:00;7.18;;;3.70;;
54743;SDS011;40639;53.170;6.728;2022-11-20T14:03:24;6.07;;;3.30;;
54743;SDS011;40639;53.170;6.728;2022-11-20T14:05:52;5.85;;;3.22;;
54743;SDS011;40639;53.170;6.728;2022-11-20T14:08:37;7.82;;;4.07;;
54743;SDS011;40639;53.170;6.728;2022-11-20T14:11:04;8.65;;;3.90;;
54743;SDS011;40639;53.170;6.728;2022-11-20T14:13:30;7.22;;;3.75;;
54743;SDS011;40639;53.170;6.728;2022-11-20T14:15:57;6.28;;;3.70;;
54743;SDS011;40639;53.170;6.728;2022-11-20T14:18:24;7.00;;;3.83;;
54743;SDS011;40639;53.170;6.728;2022-11-20T14:20:51;7.97;;;3.63;;
54743;SDS011;40639;53.170;6.728;2022-11-20T14:23:27;6.53;;;3.78;;
54743;SDS011;40639;53.170;6.728;2022-11-20T14:25:53;7.47;;;3.95;;
54743;SDS011;40639;53.170;6.728;2022-11-20T14:28:23;6.85;;;3.72;;
54743;SDS011;40639;53.170;6.728;2022-11-20T14:30:50;7.95;;;3.90;;
54743;SDS011;40639;53.170;6.728;2022-11-20T14:33:17;7.70;;;4.45;;
54743;SDS011;40639;53.170;6.728;2022-11-20T14:35:48;7.55;;;3.88;;
54743;SDS011;40639;53.170;6.728;2022-11-20T14:38:16;9.02;;;4.30;;
54743;SDS011;40639;53.170;6.728;2022-11-20T14:40:42;8.63;;;4.45;;
54743;SDS011;40639;53.170;6.728;2022-11-20T14:43:16;8.20;;;4.53;;
54743;SDS011;40639;53.170;6.728;2022-11-20T14:45:43;7.45;;;4.15;;
54743;SDS011;40639;53.170;6.728;2022-11-20T14:48:10;8.85;;;4.60;;
54743;SDS011;40639;53.170;6.728;2022-11-20T14:50:37;7.95;;;4.75;;
54743;SDS011;40639;53.170;6.728;2022-11-20T14:53:04;7.40;;;4.25;;
54743;SDS011;40639;53.170;6.728;2022-11-20T14:55:31;8.23;;;4.22;;
54743;SDS011;40639;53.170;6.728;2022-11-20T14:57:59;6.80;;;4.18;;
54743;SDS011;40639;53.170;6.728;2022-11-20T15:00:25;8.00;;;4.75;;
54743;SDS011;40639;53.170;6.728;2022-11-20T15:02:52;8.40;;;4.95;;
54743;SDS011;40639;53.170;6.728;2022-11-20T15:05:20;11.18;;;5.82;;
54743;SDS011;40639;53.170;6.728;2022-11-20T15:07:47;8.77;;;4.88;;
54743;SDS011;40639;53.170;6.728;2022-11-20T15:10:21;11.52;;;5.55;;
54743;SDS011;40639;53.170;6.728;2022-11-20T15:12:51;11.90;;;6.05;;
54743;SDS011;40639;53.170;6.728;2022-11-20T15:15:20;9.80;;;6.18;;
54743;SDS011;40639;53.170;6.728;2022-11-20T15:17:47;12.60;;;6.53;;
54743;SDS011;40639;53.170;6.728;2022-11-20T15:20:14;11.35;;;5.75;;
54743;SDS011;40639;53.170;6.728;2022-11-20T15:22:41;10.57;;;5.22;;
54743;SDS011;40639;53.170;6.728;2022-11-20T15:25:14;7.28;;;4.68;;
54743;SDS011;40639;53.170;6.728;2022-11-20T15:27:41;11.27;;;6.00;;
54743;SDS011;40639;53.170;6.728;2022-11-20T15:30:14;11.95;;;6.57;;
54743;SDS011;40639;53.170;6.728;2022-11-20T15:32:42;12.98;;;6.80;;
54743;SDS011;40639;53.170;6.728;2022-11-20T15:35:08;13.55;;;6.30;;
54743;SDS011;40639;53.170;6.728;2022-11-20T15:37:35;13.18;;;6.75;;
54743;SDS011;40639;53.170;6.728;2022-11-20T15:40:01;11.05;;;5.93;;
54743;SDS011;40639;53.170;6.728;2022-11-20T15:42:28;12.98;;;6.70;;
54743;SDS011;40639;53.170;6.728;2022-11-20T15:44:54;13.23;;;6.68;;
54743;SDS011;40639;53.170;6.728;2022-11-20T15:47:20;12.00;;;6.55;;
54743;SDS011;40639;53.170;6.728;2022-11-20T15:49:49;12.73;;;7.00;;
54743;SDS011;40639;53.170;6.728;2022-11-20T15:52:15;11.85;;;6.55;;
54743;SDS011;40639;53.170;6.728;2022-11-20T15:54:42;15.90;;;7.57;;
54743;SDS011;40639;53.170;6.728;2022-11-20T15:57:08;17.65;;;8.13;;
54743;SDS011;40639;53.170;6.728;2022-11-20T15:59:34;13.30;;;7.28;;
54743;SDS011;40639;53.170;6.728;2022-11-20T16:02:14;11.60;;;6.05;;
54743;SDS011;40639;53.170;6.728;2022-11-20T16:04:41;10.23;;;5.97;;
54743;SDS011;40639;53.170;6.728;2022-11-20T16:07:07;11.32;;;6.30;;
54743;SDS011;40639;53.170;6.728;2022-11-20T16:09:33;11.77;;;6.38;;